Time;durP1;ratioP1;P1;durP2;ratioP2;P2;SDS_P1;SDS_P2;PMS_P1;PMS_P2;Temp;Humidity;BMP_temperature;BMP_pressure;BME280_temperature;BME280_humidity;BME280_pressure;Samples;Min_cycle;Max_cycle;Signal;HPM_P1;HPM_P2
2022/06/10 04:01:59;;;;;;;8.75;6.75;;;12.10;99.90;;;;;;5201332;23;20337;-68
2022/06/10 04:04:26;;;;;;;12.70;6.57;;;;;;;;;;4944227;28;20212;-69
2022/06/10 04:06:53;;;;;;;7.00;6.45;;;12.20;99.90;;;;;;4950140;28;20252;-69
2022/06/10 04:09:20;;;;;;;7.30;6.60;;;12.20;99.90;;;;;;4948942;28;20565;-69
2022/06/10 04:11:46;;;;;;;6.72;6.13;;;12.30;99.90;;;;;;4951129;28;20591;-69
2022/06/10 04:14:13;;;;;;;7.45;6.47;;;12.30;99.90;;;;;;4956301;28;20213;-68
2022/06/10 04:16:40;;;;;;;6.82;6.38;;;12.40;99.90;;;;;;4971519;28;20216;-69
2022/06/10 04:19:08;;;;;;;6.70;6.18;;;12.50;99.90;;;;;;4944439;28;20221;-69
2022/06/10 04:21:35;;;;;;;7.18;6.57;;;12.60;99.90;;;;;;4951674;28;20248;-67
2022/06/10 04:24:01;;;;;;;7.40;5.10;;;13.20;99.90;;;;;;4955711;28;20216;-69
2022/06/10 04:26:28;;;;;;;6.30;4.93;;;14.20;99.90;;;;;;4944684;28;20469;-69
2022/06/10 04:28:54;;;;;;;4.30;4.20;;;15.00;99.90;;;;;;4955899;28;20519;-70
2022/06/10 04:31:21;;;;;;;4.27;4.07;;;15.90;99.90;;;;;;4952481;28;20535;-69
2022/06/10 04:33:48;;;;;;;4.80;4.50;;;16.50;99.90;;;;;;4951646;28;20545;-69
2022/06/10 04:36:18;;;;;;;4.00;3.80;;;17.20;99.90;;;;;;4949198;28;20875;-69
2022/06/10 04:38:46;;;;;;;4.33;4.00;;;17.80;99.90;;;;;;4951355;28;20459;-68
2022/06/10 04:41:13;;;;;;;4.47;4.20;;;18.40;99.90;;;;;;4955949;28;20493;-70
2022/06/10 04:43:40;;;;;;;4.93;4.53;;;18.70;99.90;;;;;;4954689;28;20936;-70
2022/06/10 04:46:10;;;;;;;3.90;3.80;;;19.20;99.90;;;;;;4956901;28;20520;-70
2022/06/10 04:48:36;;;;;;;4.30;4.20;;;19.60;99.90;;;;;;4944404;28;20485;-69
2022/06/10 04:51:03;;;;;;;4.33;4.10;;;20.20;99.90;;;;;;4958373;28;20483;-70
2022/06/10 04:53:31;;;;;;;3.83;3.63;;;20.70;99.90;;;;;;4953146;28;20473;-70
2022/06/10 04:55:58;;;;;;;5.40;3.80;;;21.00;99.90;;;;;;4969116;28;20521;-69
2022/06/10 04:58:25;;;;;;;4.57;4.10;;;21.50;99.90;;;;;;4952005;28;20467;-70
2022/06/10 05:00:52;;;;;;;3.90;3.63;;;21.70;99.90;;;;;;4955671;28;20499;-69
2022/06/10 05:03:19;;;;;;;3.60;3.50;;;21.50;99.90;;;;;;4960758;28;20473;-69
2022/06/10 05:05:46;;;;;;;4.90;4.50;;;22.00;99.90;;;;;;4960157;28;20855;-69
2022/06/10 05:08:17;;;;;;;3.97;3.87;;;22.20;99.90;;;;;;4953176;28;20523;-70
2022/06/10 05:10:45;;;;;;;4.23;4.07;;;22.50;99.90;;;;;;4949274;28;20488;-71
2022/06/10 05:13:12;;;;;;;4.50;4.10;;;22.60;99.90;;;;;;4960750;28;20493;-70
2022/06/10 05:15:39;;;;;;;4.30;4.00;;;22.70;99.90;;;;;;4953280;28;20946;-70
2022/06/10 05:18:06;;;;;;;3.77;3.57;;;22.80;99.90;;;;;;4950237;28;20483;-70
2022/06/10 05:20:36;;;;;;;3.73;3.43;;;22.80;99.90;;;;;;4953980;28;20494;-70
2022/06/10 05:23:04;;;;;;;3.80;3.60;;;23.10;99.90;;;;;;4960517;28;20576;-71
2022/06/10 05:25:32;;;;;;;3.97;3.57;;;23.20;99.90;;;;;;4966352;28;20466;-70
2022/06/10 05:28:00;;;;;;;3.27;3.07;;;22.90;99.90;;;;;;4959846;28;20855;-69
2022/06/10 05:30:30;;;;;;;3.30;3.10;;;23.00;99.90;;;;;;4956298;28;20521;-70
2022/06/10 05:32:57;;;;;;;3.40;3.10;;;23.40;99.90;;;;;;4959950;28;20481;-70
2022/06/10 05:35:24;;;;;;;3.63;3.33;;;23.50;99.90;;;;;;4961027;28;20463;-70
2022/06/10 05:37:51;;;;;;;2.53;2.50;;;23.80;99.90;;;;;;4948889;28;20889;-69
2022/06/10 05:40:20;;;;;;;2.73;2.60;;;24.00;99.90;;;;;;4950079;29;20521;-70
2022/06/10 05:42:46;;;;;;;2.77;2.67;;;24.40;99.90;;;;;;4949161;28;20475;-69
2022/06/10 05:45:17;;;;;;;3.37;3.07;;;24.50;99.90;;;;;;4954642;28;20466;-70
2022/06/10 05:47:45;;;;;;;2.50;2.40;;;24.50;99.90;;;;;;4954642;28;20497;-70
2022/06/10 05:50:15;;;;;;;2.83;2.73;;;24.40;99.90;;;;;;4942909;29;20464;-71
2022/06/10 05:52:42;;;;;;;2.27;2.07;;;24.60;99.90;;;;;;4955645;28;20467;-71
2022/06/10 05:55:11;;;;;;;5.17;2.50;;;24.80;99.90;;;;;;4953297;28;20999;-70
2022/06/10 05:57:38;;;;;;;2.50;2.40;;;24.30;99.90;;;;;;4933731;28;20977;-70
2022/06/10 06:00:07;;;;;;;2.30;2.10;;;24.40;99.90;;;;;;4947302;28;20471;-69
2022/06/10 06:02:35;;;;;;;3.13;2.63;;;24.50;99.90;;;;;;4962442;28;20557;-70
2022/06/10 06:05:02;;;;;;;2.13;1.93;;;24.90;99.90;;;;;;4959457;28;20514;-70
2022/06/10 06:07:31;;;;;;;3.90;2.30;;;24.90;99.90;;;;;;4954309;28;20478;-71
2022/06/10 06:09:58;;;;;;;1.80;1.80;;;24.80;99.90;;;;;;4951144;28;20616;-70
2022/06/10 06:12:25;;;;;;;2.83;2.27;;;25.10;99.90;;;;;;4951161;28;20486;-69
2022/06/10 06:14:51;;;;;;;2.83;1.90;;;25.60;99.90;;;;;;4972694;28;20621;-70
2022/06/10 06:17:20;;;;;;;2.00;1.80;;;25.90;99.90;;;;;;4946904;28;20471;-70
2022/06/10 06:19:48;;;;;;;2.30;2.10;;;25.70;99.90;;;;;;4949827;28;20475;-69
2022/06/10 06:22:15;;;;;;;3.00;2.70;;;25.60;99.90;;;;;;4956916;28;20488;-70
2022/06/10 06:24:43;;;;;;;2.67;2.57;;;26.10;99.90;;;;;;4952145;28;20465;-69
2022/06/10 06:27:14;;;;;;;2.20;1.60;;;26.60;99.90;;;;;;4935425;29;20474;-69
2022/06/10 06:29:41;;;;;;;2.97;2.27;;;26.50;99.90;;;;;;4941778;28;20478;-69
2022/06/10 06:32:08;;;;;;;1.85;1.75;;;26.50;99.90;;;;;;4963908;28;20516;-69
2022/06/10 06:34:35;;;;;;;2.10;1.60;;;26.10;99.90;;;;;;4948667;28;20228;-69
2022/06/10 06:37:03;;;;;;;1.43;1.40;;;26.40;99.90;;;;;;4934931;29;20848;-68
2022/06/10 06:39:30;;;;;;;2.10;1.63;;;26.20;99.80;;;;;;4941398;28;21033;-67
2022/06/10 06:41:57;;;;;;;2.53;1.70;;;26.50;99.90;;;;;;4963649;28;20578;-69
2022/06/10 06:44:24;;;;;;;1.70;1.60;;;26.90;98.60;;;;;;4970937;28;21080;-69
2022/06/10 06:46:51;;;;;;;2.33;1.50;;;27.00;99.90;;;;;;4957298;28;20893;-71
2022/06/10 06:49:20;;;;;;;1.67;1.57;;;27.40;97.80;;;;;;4951632;28;20464;-68
2022/06/10 06:51:48;;;;;;;1.83;1.73;;;27.90;96.70;;;;;;4954525;28;20543;-69
2022/06/10 06:54:17;;;;;;;1.53;1.40;;;28.10;95.80;;;;;;4953675;28;20899;-69
2022/06/10 06:56:44;;;;;;;3.00;1.30;;;28.30;95.10;;;;;;4953612;28;20567;-68
2022/06/10 06:59:11;;;;;;;1.90;1.13;;;28.20;92.30;;;;;;4949030;28;20488;-69
2022/06/10 07:01:38;;;;;;;1.50;1.30;;;27.80;92.60;;;;;;4952372;29;20873;-68
2022/06/10 07:04:06;;;;;;;1.27;1.20;;;27.70;91.10;;;;;;4953775;28;20464;-68
2022/06/10 07:06:35;;;;;;;1.10;1.10;;;27.80;91.60;;;;;;4951950;28;20468;-68
2022/06/10 07:09:02;;;;;;;1.53;1.43;;;28.10;91.10;;;;;;4967122;28;20845;-68
2022/06/10 07:11:32;;;;;;;1.53;1.00;;;28.20;90.40;;;;;;4960002;28;20492;-67
2022/06/10 07:13:59;;;;;;;1.60;1.47;;;28.20;90.50;;;;;;4961902;28;20465;-69
2022/06/10 07:16:26;;;;;;;1.07;1.03;;;27.90;90.00;;;;;;4947911;28;20461;-69
2022/06/10 07:18:53;;;;;;;1.60;1.30;;;27.80;89.70;;;;;;4933479;29;20541;-68
2022/06/10 07:21:20;;;;;;;1.00;1.00;;;27.50;89.60;;;;;;4937825;29;20494;-68
2022/06/10 07:23:47;;;;;;;2.03;1.43;;;26.90;90.80;;;;;;4958575;28;20519;-68
2022/06/10 07:26:13;;;;;;;1.10;1.10;;;27.00;91.20;;;;;;4952265;28;20468;-68
2022/06/10 07:28:42;;;;;;;1.23;1.10;;;27.60;90.30;;;;;;4957758;28;20469;-68
2022/06/10 07:31:08;;;;;;;1.97;1.00;;;27.90;89.40;;;;;;4939237;28;20539;-68
2022/06/10 07:33:36;;;;;;;1.43;1.33;;;28.10;86.30;;;;;;4948388;28;20481;-69
2022/06/10 07:36:04;;;;;;;0.90;0.90;;;28.00;87.70;;;;;;4948640;28;20554;-69
2022/06/10 07:38:31;;;;;;;1.90;1.37;;;28.30;86.30;;;;;;4953538;28;20488;-70
2022/06/10 07:43:45;;;;;;;3.90;1.33;;;28.50;84.00;;;;;;4946578;28;20464;-69
2022/06/10 07:46:15;;;;;;;1.37;1.27;;;28.20;84.20;;;;;;4954975;28;20484;-69
2022/06/10 07:48:42;;;;;;;1.20;1.10;;;28.50;84.60;;;;;;4945155;28;20563;-69
2022/06/10 07:51:10;;;;;;;1.20;1.20;;;28.60;83.40;;;;;;4943275;29;20493;-69
2022/06/10 07:53:39;;;;;;;1.50;1.20;;;28.80;82.60;;;;;;4954935;28;20544;-69
2022/06/10 07:56:06;;;;;;;0.77;0.77;;;29.20;82.40;;;;;;4957567;28;20555;-69
2022/06/10 07:58:33;;;;;;;2.07;1.90;;;29.50;79.50;;;;;;4951265;28;20494;-69
2022/06/10 08:01:01;;;;;;;1.93;1.33;;;29.20;78.40;;;;;;4941543;28;20512;-69
2022/06/10 08:03:28;;;;;;;1.13;1.03;;;28.40;78.30;;;;;;4944812;28;20470;-69
2022/06/10 08:05:55;;;;;;;2.50;1.10;;;28.30;79.80;;;;;;4948288;28;20468;-69
2022/06/10 08:08:23;;;;;;;1.90;1.07;;;27.90;80.60;;;;;;4943681;28;20481;-68
2022/06/10 08:10:50;;;;;;;0.90;0.90;;;27.90;80.80;;;;;;4946125;28;20500;-69
2022/06/10 08:13:16;;;;;;;2.23;1.17;;;28.00;81.60;;;;;;4958293;28;20465;-68
2022/06/10 08:15:44;;;;;;;3.10;0.97;;;28.10;80.00;;;;;;4935342;28;20544;-69
2022/06/10 08:18:15;;;;;;;1.70;1.60;;;28.10;80.90;;;;;;4953826;28;20487;-69
2022/06/10 08:23:29;;;;;;;5.40;1.60;;;28.00;79.80;;;;;;4955019;28;20590;-69
2022/06/10 08:25:58;;;;;;;2.13;1.33;;;28.00;80.90;;;;;;4958747;28;20519;-69
2022/06/10 08:28:25;;;;;;;1.40;1.30;;;28.10;78.90;;;;;;4943218;28;21242;-69
2022/06/10 08:30:52;;;;;;;1.20;1.10;;;28.00;78.60;;;;;;4941764;29;20489;-67
2022/06/10 08:33:20;;;;;;;1.63;1.50;;;28.10;79.30;;;;;;4954502;28;20475;-68
2022/06/10 08:35:47;;;;;;;1.77;1.30;;;28.10;78.00;;;;;;4939996;28;20543;-68
2022/06/10 08:38:15;;;;;;;1.60;1.47;;;27.70;78.30;;;;;;4949588;28;20523;-68
2022/06/10 08:40:50;;;;;;;0.90;0.80;;;27.40;78.50;;;;;;4946886;28;20578;-69
2022/06/10 08:43:29;;;;;;;2.90;1.47;;;26.80;79.30;;;;;;4943607;28;20846;-69
2022/06/10 08:46:04;;;;;;;3.43;1.60;;;26.60;80.60;;;;;;4944926;28;20516;-68
2022/06/10 08:48:41;;;;;;;1.33;1.23;;;26.70;81.10;;;;;;4944638;28;20460;-69
2022/06/10 08:51:16;;;;;;;1.33;1.30;;;26.80;81.10;;;;;;4949484;28;20493;-69
2022/06/10 08:54:06;;;;;;;3.47;1.83;;;26.90;80.50;;;;;;4948410;28;20518;-71
2022/06/10 08:56:35;;;;;;;3.43;1.30;;;26.60;81.50;;;;;;4946749;28;20875;-70
2022/06/10 08:59:07;;;;;;;1.60;1.50;;;26.70;82.40;;;;;;4947949;28;20496;-68
2022/06/10 09:01:44;;;;;;;1.37;1.23;;;26.90;81.50;;;;;;4952581;28;20500;-70
2022/06/10 09:04:28;;;;;;;1.90;1.60;;;26.70;80.80;;;;;;4956257;28;20470;-69
2022/06/10 09:06:58;;;;;;;2.13;1.30;;;26.60;81.80;;;;;;4954030;28;20571;-69
2022/06/10 09:09:27;;;;;;;1.97;1.80;;;26.70;81.60;;;;;;4954420;28;20474;-69
2022/06/10 09:12:00;;;;;;;2.63;1.80;;;26.40;80.20;;;;;;4964389;28;20482;-69
2022/06/10 09:14:28;;;;;;;2.83;1.90;;;26.40;82.10;;;;;;4945182;28;20487;-69
2022/06/10 09:17:02;;;;;;;2.43;2.00;;;26.60;80.60;;;;;;4952137;28;20474;-69
2022/06/10 09:19:44;;;;;;;2.13;1.60;;;26.40;80.90;;;;;;4961544;28;20480;-68
2022/06/10 09:22:17;;;;;;;2.83;2.50;;;26.50;80.60;;;;;;4980904;28;20560;-68
2022/06/10 09:24:49;;;;;;;2.57;2.47;;;26.40;80.30;;;;;;4963567;28;20464;-70
2022/06/10 09:27:24;;;;;;;3.77;2.00;;;26.40;79.70;;;;;;4948673;28;20474;-69
2022/06/10 09:29:51;;;;;;;5.17;2.33;;;26.30;79.50;;;;;;4937675;28;20885;-69
2022/06/10 09:32:24;;;;;;;1.87;1.77;;;25.80;80.10;;;;;;4946902;28;20611;-69
2022/06/10 09:35:01;;;;;;;3.53;2.03;;;25.20;82.00;;;;;;4943632;28;20565;-70
2022/06/10 09:37:39;;;;;;;2.77;2.47;;;24.90;82.50;;;;;;4959589;28;20466;-70
2022/06/10 09:43:21;;;;;;;3.73;1.60;;;24.70;81.40;;;;;;4961186;28;20820;-70
2022/06/10 09:45:54;;;;;;;2.13;2.03;;;24.50;82.00;;;;;;4938117;28;20475;-69
2022/06/10 09:48:33;;;;;;;1.90;1.80;;;24.30;83.20;;;;;;4951871;29;21066;-67
2022/06/10 09:51:09;;;;;;;3.00;2.80;;;24.20;82.90;;;;;;4952696;28;20506;-69
2022/06/10 09:53:53;;;;;;;4.37;2.53;;;24.30;85.10;;;;;;4970225;28;20992;-70
2022/06/10 09:56:37;;;;;;;2.93;2.57;;;24.40;84.40;;;;;;4951465;28;20569;-69
2022/06/10 09:59:15;;;;;;;4.20;3.80;;;24.40;83.50;;;;;;4955650;28;20833;-70
2022/06/10 10:01:48;;;;;;;2.60;2.30;;;24.50;84.10;;;;;;4960951;28;20603;-70
2022/06/10 10:04:27;;;;;;;2.20;2.10;;;24.70;82.80;;;;;;4963151;28;20833;-70
2022/06/10 10:07:01;;;;;;;2.23;2.13;;;24.50;82.20;;;;;;4954404;28;20471;-70
2022/06/10 10:09:40;;;;;;;3.33;2.63;;;24.50;82.70;;;;;;4970024;28;20459;-70
2022/06/10 10:12:20;;;;;;;3.00;2.80;;;24.50;82.70;;;;;;4961887;28;20492;-70
2022/06/10 10:14:55;;;;;;;2.60;2.40;;;24.60;84.30;;;;;;4954700;28;20986;-69
2022/06/10 10:17:43;;;;;;;2.90;2.63;;;24.60;83.10;;;;;;4951621;28;23761;-69
2022/06/10 10:20:19;;;;;;;3.30;3.00;;;24.60;83.00;;;;;;4955990;28;20477;-69
2022/06/10 10:23:13;;;;;;;2.87;2.67;;;24.30;83.00;;;;;;4957134;28;20589;-69
2022/06/10 10:25:44;;;;;;;4.07;3.00;;;24.10;84.40;;;;;;4951895;28;20471;-69
2022/06/10 10:28:17;;;;;;;4.23;3.03;;;24.10;83.90;;;;;;4965517;28;20830;-69
2022/06/10 10:30:47;;;;;;;3.77;2.87;;;24.00;84.90;;;;;;4969530;28;20937;-69
2022/06/10 10:33:16;;;;;;;3.90;2.97;;;24.00;85.00;;;;;;4951071;28;20473;-69
2022/06/10 10:35:47;;;;;;;3.30;2.20;;;24.20;85.20;;;;;;4950754;28;20472;-69
2022/06/10 10:38:29;;;;;;;2.97;2.60;;;24.30;84.20;;;;;;4951625;28;20460;-69
2022/06/10 10:40:55;;;;;;;2.53;2.30;;;24.30;83.30;;;;;;4942198;28;20478;-69
2022/06/10 10:43:27;;;;;;;3.67;2.80;;;24.10;83.90;;;;;;4958584;28;20466;-69
2022/06/10 10:45:58;;;;;;;2.90;2.70;;;24.00;85.80;;;;;;4963681;28;20466;-70
2022/06/10 10:48:28;;;;;;;2.60;1.87;;;24.10;85.00;;;;;;4951498;28;20525;-69
2022/06/10 10:51:03;;;;;;;2.93;2.77;;;24.20;84.50;;;;;;4938189;28;20496;-70
2022/06/10 10:53:46;;;;;;;2.67;2.40;;;24.20;84.30;;;;;;4948650;28;20471;-70
2022/06/10 10:56:15;;;;;;;3.47;2.37;;;24.30;84.20;;;;;;4958263;28;20523;-70
2022/06/10 10:58:49;;;;;;;3.17;2.50;;;24.50;84.60;;;;;;4950036;28;20476;-70
2022/06/10 11:01:45;;;;;;;3.67;3.47;;;24.50;82.60;;;;;;4942092;28;20517;-70
2022/06/10 11:04:12;;;;;;;3.03;2.10;;;24.50;82.30;;;;;;4961100;28;20516;-70
2022/06/10 11:06:39;;;;;;;2.30;2.30;;;24.30;81.90;;;;;;4948399;28;20474;-70
2022/06/10 11:09:17;;;;;;;2.97;2.80;;;24.50;83.30;;;;;;4958166;28;20472;-70
2022/06/10 11:11:46;;;;;;;2.47;2.40;;;24.50;84.20;;;;;;4958565;28;20563;-70
2022/06/10 11:14:22;;;;;;;2.33;2.20;;;24.70;85.50;;;;;;4950886;28;20763;-70
2022/06/10 11:17:19;;;;;;;2.40;2.30;;;24.80;83.90;;;;;;4946756;29;20551;-70
2022/06/10 11:19:51;;;;;;;3.13;2.83;;;24.70;84.90;;;;;;4937702;28;20496;-70
2022/06/10 11:22:31;;;;;;;3.20;2.93;;;24.80;85.70;;;;;;4961336;28;20481;-70
2022/06/10 11:25:28;;;;;;;2.70;2.63;;;25.00;84.80;;;;;;4949762;28;20827;-71
2022/06/10 11:28:05;;;;;;;4.47;2.83;;;25.20;84.70;;;;;;4947844;28;20496;-70
2022/06/10 11:30:44;;;;;;;2.83;2.70;;;25.20;84.10;;;;;;4952549;28;20468;-70
2022/06/10 11:33:23;;;;;;;4.80;2.80;;;25.00;84.00;;;;;;4969087;28;20506;-70
2022/06/10 11:36:07;;;;;;;4.23;3.17;;;24.90;85.30;;;;;;4955910;28;20945;-70
2022/06/10 11:38:37;;;;;;;2.67;2.57;;;24.90;84.90;;;;;;4959410;28;20499;-70
2022/06/10 11:41:24;;;;;;;2.73;2.53;;;25.10;86.00;;;;;;4960508;28;20496;-70
2022/06/10 11:43:56;;;;;;;3.40;3.17;;;25.10;84.80;;;;;;4947722;28;20852;-70
2022/06/10 11:46:28;;;;;;;2.90;2.70;;;25.10;86.80;;;;;;4953476;28;20471;-70
2022/06/10 11:49:00;;;;;;;3.00;2.90;;;25.30;85.90;;;;;;4956220;28;20965;-70
2022/06/10 11:51:32;;;;;;;2.57;2.47;;;25.40;86.00;;;;;;4950508;28;20512;-70
2022/06/10 11:54:04;;;;;;;2.90;2.70;;;25.20;85.90;;;;;;4953226;28;20475;-70
2022/06/10 11:59:47;;;;;;;6.13;2.83;;;25.00;86.90;;;;;;4949841;28;20505;-70
2022/06/10 12:02:22;;;;;;;2.87;2.70;;;24.80;87.60;;;;;;4939342;28;20552;-70
2022/06/10 12:05:00;;;;;;;3.60;3.20;;;24.60;88.40;;;;;;4954316;28;20538;-70
2022/06/10 12:07:31;;;;;;;2.90;2.80;;;24.60;88.40;;;;;;4953238;28;20477;-70
2022/06/10 12:10:00;;;;;;;2.90;2.70;;;24.50;88.90;;;;;;4958877;28;20624;-70
2022/06/10 12:12:33;;;;;;;4.67;2.63;;;24.50;88.60;;;;;;4949515;28;20492;-70
2022/06/10 12:15:12;;;;;;;2.10;2.10;;;24.50;87.90;;;;;;4957228;28;20469;-70
2022/06/10 12:17:42;;;;;;;3.10;2.50;;;24.50;87.10;;;;;;4943372;28;20472;-70
2022/06/10 12:20:16;;;;;;;2.73;2.50;;;24.70;87.10;;;;;;4956033;28;20542;-70
2022/06/10 12:22:43;;;;;;;2.23;2.00;;;24.90;86.90;;;;;;4953634;28;20988;-71
2022/06/10 12:25:17;;;;;;;2.10;2.00;;;25.30;86.30;;;;;;4955759;28;20465;-70
2022/06/10 12:27:53;;;;;;;2.47;2.27;;;25.50;84.90;;;;;;4948670;28;20472;-70
2022/06/10 12:30:26;;;;;;;3.03;2.23;;;25.70;83.00;;;;;;4948823;28;20911;-70
2022/06/10 12:33:01;;;;;;;2.27;2.17;;;25.90;83.90;;;;;;4946863;28;20479;-70
2022/06/10 12:35:34;;;;;;;3.30;2.60;;;26.00;82.80;;;;;;4953474;28;20462;-70
2022/06/10 12:38:05;;;;;;;2.20;2.20;;;26.00;82.10;;;;;;4952034;28;22240;-70
2022/06/10 12:40:37;;;;;;;3.07;2.77;;;25.80;83.20;;;;;;4946414;28;20489;-71
2022/06/10 12:43:11;;;;;;;2.53;2.30;;;25.60;83.50;;;;;;4948939;28;20459;-70
2022/06/10 12:45:44;;;;;;;5.13;2.30;;;25.50;84.60;;;;;;4960599;28;20456;-70
2022/06/10 12:48:15;;;;;;;2.37;2.27;;;25.40;82.90;;;;;;4956756;28;20551;-70
2022/06/10 12:50:51;;;;;;;3.63;3.00;;;25.30;85.40;;;;;;4962898;28;20995;-70
2022/06/10 12:53:38;;;;;;;3.00;2.80;;;25.60;86.30;;;;;;4971766;28;20448;-70
2022/06/10 12:56:20;;;;;;;4.83;2.90;;;25.60;86.70;;;;;;4958278;28;20958;-70
2022/06/10 12:58:53;;;;;;;2.87;2.77;;;25.80;87.00;;;;;;4958747;28;20510;-70
2022/06/10 13:01:40;;;;;;;3.60;3.37;;;25.90;87.10;;;;;;4968303;28;20592;-70
2022/06/10 13:04:13;;;;;;;3.30;3.10;;;25.70;88.10;;;;;;4955019;28;20468;-70
2022/06/10 13:07:00;;;;;;;3.63;3.53;;;25.50;89.50;;;;;;4960411;28;20464;-70
2022/06/10 13:09:32;;;;;;;3.67;3.40;;;25.40;90.40;;;;;;4949111;29;20462;-70
2022/06/10 13:12:02;;;;;;;3.60;3.40;;;25.30;90.50;;;;;;4952445;28;20520;-70
2022/06/10 13:14:43;;;;;;;3.33;3.20;;;25.20;90.80;;;;;;4955646;28;20460;-70
2022/06/10 13:17:24;;;;;;;4.93;4.50;;;25.20;91.00;;;;;;4958681;28;20463;-70
2022/06/10 13:20:18;;;;;;;4.43;4.07;;;25.30;91.10;;;;;;4945028;28;20864;-70
2022/06/10 13:22:45;;;;;;;3.33;3.00;;;25.50;91.20;;;;;;4959427;28;20471;-70
2022/06/10 13:25:24;;;;;;;3.03;2.90;;;25.40;91.00;;;;;;4961731;28;20556;-70
2022/06/10 13:27:51;;;;;;;3.10;2.90;;;25.50;91.30;;;;;;4959606;28;20474;-70
2022/06/10 13:30:24;;;;;;;3.57;3.37;;;25.60;91.80;;;;;;4957984;28;20837;-70
2022/06/10 13:32:54;;;;;;;3.90;2.80;;;25.60;91.60;;;;;;4936118;29;20473;-70
2022/06/10 13:35:23;;;;;;;4.53;3.07;;;25.50;91.10;;;;;;4937650;28;20465;-70
2022/06/10 13:37:57;;;;;;;3.57;3.37;;;25.50;91.60;;;;;;4966392;28;20814;-70
2022/06/10 13:40:27;;;;;;;3.03;2.80;;;25.50;92.10;;;;;;4974237;28;20475;-70
2022/06/10 13:42:57;;;;;;;3.10;2.90;;;25.50;91.70;;;;;;4974868;28;20519;-70
2022/06/10 13:45:29;;;;;;;2.43;2.33;;;25.60;92.10;;;;;;4962724;28;20530;-70
2022/06/10 13:48:00;;;;;;;3.80;2.53;;;25.60;91.30;;;;;;4968163;28;20546;-69
2022/06/10 13:50:52;;;;;;;2.97;2.77;;;25.50;91.60;;;;;;4951110;28;20469;-70
2022/06/10 13:53:26;;;;;;;2.40;2.07;;;25.50;91.70;;;;;;4959290;28;20546;-70
2022/06/10 13:55:55;;;;;;;2.53;2.33;;;25.40;91.80;;;;;;4960845;28;20464;-70
2022/06/10 13:58:24;;;;;;;2.57;2.10;;;25.30;92.10;;;;;;4970941;28;20514;-70
2022/06/10 14:00:55;;;;;;;2.23;2.10;;;25.30;92.00;;;;;;4956418;28;20631;-70
2022/06/10 14:03:39;;;;;;;2.00;1.90;;;25.20;92.80;;;;;;4953990;28;20539;-70
2022/06/10 14:06:15;;;;;;;2.50;2.40;;;25.40;92.40;;;;;;4958573;28;20491;-70
2022/06/10 14:08:47;;;;;;;2.43;2.30;;;25.40;92.50;;;;;;4946472;28;20524;-70
2022/06/10 14:11:15;;;;;;;2.10;2.10;;;25.40;93.30;;;;;;4954868;28;20481;-70
2022/06/10 14:13:50;;;;;;;2.10;2.00;;;25.50;93.00;;;;;;4952679;28;21005;-70
2022/06/10 14:16:18;;;;;;;3.57;2.20;;;25.60;92.80;;;;;;4951454;29;20692;-70
2022/06/10 14:18:47;;;;;;;1.70;1.60;;;25.70;93.00;;;;;;4954987;28;20472;-70
2022/06/10 14:21:14;;;;;;;1.83;1.77;;;25.70;92.80;;;;;;4956661;28;20588;-70
2022/06/10 14:24:07;;;;;;;1.03;1.03;;;25.70;92.60;;;;;;4949977;28;20977;-70
2022/06/10 14:26:35;;;;;;;2.20;1.10;;;25.70;92.30;;;;;;4957592;28;20465;-70
2022/06/10 14:29:16;;;;;;;1.57;1.57;;;25.80;92.20;;;;;;4960221;28;20459;-70
2022/06/10 14:31:46;;;;;;;1.50;1.40;;;25.70;92.70;;;;;;4949307;28;20538;-70
2022/06/10 14:34:19;;;;;;;1.27;1.27;;;25.70;92.70;;;;;;4964238;28;20584;-70
2022/06/10 14:36:56;;;;;;;1.10;1.00;;;25.60;93.00;;;;;;4957678;28;20535;-69
2022/06/10 14:39:26;;;;;;;1.40;1.40;;;25.40;92.80;;;;;;4965212;28;20475;-70
2022/06/10 14:41:57;;;;;;;1.33;1.23;;;25.20;93.20;;;;;;4960377;28;20493;-71
2022/06/10 14:44:25;;;;;;;1.20;0.93;;;24.90;93.30;;;;;;4966694;28;20468;-70
2022/06/10 14:47:12;;;;;;;1.07;1.07;;;24.70;93.60;;;;;;4960098;28;20471;-70
2022/06/10 14:49:55;;;;;;;1.10;1.10;;;24.70;93.90;;;;;;4965499;28;20468;-70
2022/06/10 14:52:27;;;;;;;0.90;0.90;;;24.60;94.50;;;;;;4955127;28;20487;-70
2022/06/10 14:54:55;;;;;;;1.40;1.40;;;24.70;94.80;;;;;;4950359;28;20468;-70
2022/06/10 14:57:25;;;;;;;0.97;0.90;;;24.80;94.60;;;;;;4962435;28;20471;-70
2022/06/10 14:59:53;;;;;;;1.30;1.30;;;24.90;94.60;;;;;;4965129;28;20937;-70
2022/06/10 15:02:21;;;;;;;1.27;0.63;;;24.90;95.00;;;;;;4964414;28;20594;-70
2022/06/10 15:07:35;;;;;;;1.67;1.27;;;24.70;94.70;;;;;;4959640;28;20853;-70
2022/06/10 15:10:05;;;;;;;3.17;1.30;;;24.60;95.10;;;;;;4957264;28;20471;-70
2022/06/10 15:12:32;;;;;;;1.60;1.50;;;24.80;95.40;;;;;;4948846;28;20659;-69
2022/06/10 15:14:59;;;;;;;1.50;1.40;;;24.80;95.50;;;;;;4944144;28;20500;-70
2022/06/10 15:17:31;;;;;;;1.67;1.67;;;25.10;95.00;;;;;;4941581;28;20526;-69
2022/06/10 15:19:58;;;;;;;2.93;1.30;;;25.20;94.70;;;;;;4968445;28;20945;-70
2022/06/10 15:22:30;;;;;;;1.20;1.20;;;25.20;95.00;;;;;;4967493;28;20558;-70
2022/06/10 15:25:00;;;;;;;1.63;1.53;;;25.20;94.80;;;;;;4959070;28;20476;-69
2022/06/10 15:27:27;;;;;;;1.90;1.80;;;25.20;95.60;;;;;;4951787;28;20559;-69
2022/06/10 15:29:53;;;;;;;2.30;2.10;;;25.20;95.40;;;;;;4969038;28;20809;-69
2022/06/10 15:32:20;;;;;;;1.50;1.40;;;25.20;95.60;;;;;;4956324;28;20488;-69
2022/06/10 15:43:06;;;;;;;1.87;1.77;;;24.90;96.40;;;;;;4939789;28;20535;-68
2022/06/10 15:45:32;;;;;;;1.00;1.00;;;24.80;99.90;;;;;;4970100;28;20467;-69
2022/06/10 15:47:59;;;;;;;1.53;1.30;;;23.50;97.10;;;;;;4959701;28;20476;-69
2022/06/10 15:50:28;;;;;;;1.00;1.00;;;24.60;97.90;;;;;;4954471;28;21001;-69
2022/06/10 15:52:55;;;;;;;1.20;1.20;;;24.60;98.00;;;;;;4956662;28;20463;-69
2022/06/10 15:58:21;;;;;;;1.70;1.60;;;24.50;98.40;;;;;;4948992;29;20799;-69
2022/06/10 16:00:50;;;;;;;2.13;1.67;;;24.50;99.20;;;;;;4951391;28;20492;-69
2022/06/10 16:03:18;;;;;;;1.27;1.27;;;24.70;99.30;;;;;;4948972;28;20534;-69
2022/06/10 16:05:48;;;;;;;1.50;1.50;;;24.70;98.90;;;;;;4945190;28;20536;-69
2022/06/10 16:08:15;;;;;;;1.40;1.40;;;24.80;99.20;;;;;;4955081;28;20471;-69
2022/06/10 16:10:45;;;;;;;1.53;1.43;;;24.90;98.80;;;;;;4959308;28;20530;-69
2022/06/10 16:13:15;;;;;;;1.30;1.30;;;24.80;99.10;;;;;;4948189;28;20500;-67
2022/06/10 16:15:46;;;;;;;2.60;1.30;;;24.50;99.00;;;;;;4957773;28;20461;-69
2022/06/10 16:18:17;;;;;;;1.77;1.67;;;24.50;99.50;;;;;;4955287;28;20476;-70
2022/06/10 16:20:43;;;;;;;1.43;1.33;;;24.40;99.70;;;;;;4941861;28;20519;-68
2022/06/10 16:23:14;;;;;;;2.23;1.60;;;24.40;99.90;;;;;;4958257;28;20460;-69
2022/06/10 16:25:45;;;;;;;1.30;1.30;;;24.40;99.90;;;;;;4969971;28;20519;-68
2022/06/10 16:28:14;;;;;;;1.40;1.27;;;24.30;99.90;;;;;;4952538;28;20480;-69
2022/06/10 16:30:44;;;;;;;1.50;1.50;;;24.20;99.90;;;;;;4945292;28;20554;-69
2022/06/10 16:33:12;;;;;;;1.23;1.20;;;24.20;99.90;;;;;;4942807;28;20523;-68
2022/06/10 16:35:40;;;;;;;3.90;1.87;;;24.20;99.90;;;;;;4968793;28;20538;-68
2022/06/10 16:38:17;;;;;;;1.40;1.40;;;24.10;99.90;;;;;;4955518;28;20496;-69
2022/06/10 16:40:44;;;;;;;1.07;1.07;;;24.10;99.90;;;;;;4943592;29;20874;-69
2022/06/10 16:43:15;;;;;;;1.43;1.43;;;23.90;99.90;;;;;;4939248;29;20884;-68
2022/06/10 16:45:42;;;;;;;1.53;1.53;;;23.90;99.90;;;;;;4952098;28;20558;-68
2022/06/10 16:48:14;;;;;;;1.30;1.30;;;23.90;99.90;;;;;;4959551;28;20484;-69
2022/06/10 16:50:40;;;;;;;9.00;1.73;;;23.90;99.90;;;;;;4959598;28;20492;-69
2022/06/10 16:53:07;;;;;;;1.50;1.50;;;23.90;99.90;;;;;;4958382;28;20452;-68
2022/06/10 16:55:35;;;;;;;1.53;1.47;;;24.00;99.90;;;;;;4966911;28;20471;-68
2022/06/10 16:58:02;;;;;;;1.63;1.53;;;23.90;99.90;;;;;;4942712;28;20465;-70
2022/06/10 17:00:32;;;;;;;1.47;1.40;;;23.90;99.90;;;;;;4951067;28;20868;-68
2022/06/10 17:03:01;;;;;;;1.87;1.80;;;23.90;99.90;;;;;;4965179;28;20836;-68
2022/06/10 17:05:31;;;;;;;1.47;1.47;;;23.90;99.90;;;;;;4948914;28;20485;-68
2022/06/10 17:07:58;;;;;;;1.70;1.60;;;24.00;99.90;;;;;;4975411;28;20479;-69
2022/06/10 17:10:25;;;;;;;1.87;1.83;;;24.00;99.90;;;;;;4957318;28;20477;-69
2022/06/10 17:12:58;;;;;;;2.40;1.60;;;24.00;99.90;;;;;;4955677;28;20460;-69
2022/06/10 17:15:27;;;;;;;1.77;1.73;;;24.10;99.90;;;;;;4953036;28;20480;-68
2022/06/10 17:17:54;;;;;;;1.37;1.37;;;24.00;99.90;;;;;;4957141;28;20537;-69
2022/06/10 17:20:24;;;;;;;1.90;1.90;;;24.10;99.90;;;;;;4957496;28;20516;-68
2022/06/10 17:22:52;;;;;;;1.50;1.50;;;24.00;99.90;;;;;;4948543;28;20480;-68
2022/06/10 17:25:19;;;;;;;1.67;1.57;;;24.00;99.90;;;;;;4959739;28;20460;-69
2022/06/10 17:27:46;;;;;;;1.70;1.70;;;23.90;99.90;;;;;;4967496;28;20471;-69
2022/06/10 17:30:26;;;;;;;1.70;1.70;;;23.80;99.90;;;;;;4962087;28;20468;-69
2022/06/10 17:32:53;;;;;;;1.60;1.60;;;23.70;99.90;;;;;;4957999;28;21003;-69
2022/06/10 17:35:21;;;;;;;2.33;2.23;;;23.70;99.90;;;;;;4957206;28;20956;-68